This is the latest recevied weather packets stored in our database for station/object N1LJK-13. If no packets are shown the sender has not sent any weather packets the latest 10 day(s).
| Time | Temp. | Humidity | Pressure | Rain* | Wind** | Luminosity | Snow |
|---|---|---|---|---|---|---|---|
| 1777695930 | 2.22° C | 98% | 1014 hPa | 0 mm | - | - | - |
| 1777694730 | 2.78° C | 98% | 1013.8 hPa | 0 mm | - | - | - |
| 1777692330 | 4.44° C | 98% | 1013.7 hPa | 0 mm | - | - | - |
| 1777691131 | 5° C | 98% | 1013.6 hPa | 0 mm | - | - | - |
| 1777689930 | 5.56° C | 98% | 1013.7 hPa | 0 mm | - | - | - |
| 1777688730 | 6.11° C | 98% | 1013.4 hPa | 0 mm | - | - | - |
| 1777687530 | 6.67° C | 98% | 1013.4 hPa | 0 mm | - | - | - |
| 1777686330 | 7.22° C | 98% | 1013.4 hPa | 0 mm | - | - | - |
| 1777685130 | 7.78° C | 98% | 1013.1 hPa | 0 mm | - | - | - |
| 1777683930 | 8.33° C | 98% | 1012.8 hPa | 0 mm | - | - | - |
| 1777681530 | 10.56° C | 98% | 1011.8 hPa | 0 mm | - | - | - |
| 1777680330 | 11.11° C | 98% | 1011.3 hPa | 0 mm | - | - | - |
| 1777679131 | 11.67° C | 98% | 1011.1 hPa | 0 mm | - | - | - |
| 1777677931 | 12.78° C | 98% | 1010.5 hPa | 0 mm | - | - | - |
| 1777676731 | 13.33° C | 98% | 1010.1 hPa | 0 mm | - | - | - |
| 1777675530 | 13.89° C | 98% | 1009.9 hPa | 0 mm | - | - | - |
| 1777674334 | 15° C | 98% | 1009.3 hPa | 0 mm | - | - | - |
| 1777673130 | 15.56° C | 98% | 1009.3 hPa | 0 mm | - | - | - |
| 1777671931 | 16.11° C | 98% | 1009.1 hPa | 0 mm | - | - | - |
| 1777670730 | 16.67° C | 98% | 1008.9 hPa | 0 mm | - | - | - |
| 1777668331 | 16.11° C | 98% | 1008.7 hPa | 0 mm | - | - | - |
| 1777667131 | 17.22° C | 98% | 1008.6 hPa | 0 mm | - | - | - |
| 1777665931 | 17.22° C | 98% | 1008.4 hPa | 0 mm | - | - | - |
| 1777664730 | 18.33° C | 98% | 1008.2 hPa | 0 mm | - | - | - |
| 1777663531 | 18.89° C | 98% | 1008.2 hPa | 0 mm | - | - | - |
* Rain latest hour (hover to see other rain measurements)
** Current wind speed in m/s (hover to see current wind gust speed)